sensor_id;sensor_type;location;lat;lon;timestamp;pressure;altitude;pressure_sealevel;temperature;humidity
40117;BME280;25829;50.228;18.936;2022-09-09T00:00:28;98244.97;;;17.18;78.13
40117;BME280;25829;50.228;18.936;2022-09-09T00:10:29;98233.84;;;16.99;78.29
40117;BME280;25829;50.228;18.936;2022-09-09T00:13:38;98229.81;;;16.92;78.24
40117;BME280;25829;50.228;18.936;2022-09-09T00:16:49;98230.59;;;16.87;78.27
40117;BME280;25829;50.228;18.936;2022-09-09T00:23:10;98235.63;;;16.84;78.23
40117;BME280;25829;50.228;18.936;2022-09-09T00:29:34;98236.81;;;16.71;78.11
40117;BME280;25829;50.228;18.936;2022-09-09T00:32:36;98234.94;;;16.66;78.11
40117;BME280;25829;50.228;18.936;2022-09-09T00:35:57;98234.06;;;16.61;78.11
40117;BME280;25829;50.228;18.936;2022-09-09T00:39:02;98240.41;;;16.55;78.07
40117;BME280;25829;50.228;18.936;2022-09-09T00:45:35;98223.00;;;16.47;77.91
40117;BME280;25829;50.228;18.936;2022-09-09T00:58:28;98252.03;;;16.21;77.78
40117;BME280;25829;50.228;18.936;2022-09-09T01:01:29;98249.03;;;16.18;77.87
40117;BME280;25829;50.228;18.936;2022-09-09T01:04:35;98255.94;;;16.14;77.92
40117;BME280;25829;50.228;18.936;2022-09-09T01:07:37;98257.44;;;16.10;78.03
40117;BME280;25829;50.228;18.936;2022-09-09T01:10:44;98259.81;;;16.06;77.75
40117;BME280;25829;50.228;18.936;2022-09-09T01:14:05;98273.84;;;16.01;77.88
40117;BME280;25829;50.228;18.936;2022-09-09T01:17:24;98274.03;;;15.95;77.92
40117;BME280;25829;50.228;18.936;2022-09-09T01:21:09;98268.91;;;15.88;78.44
40117;BME280;25829;50.228;18.936;2022-09-09T01:24:29;98273.69;;;15.86;78.46
40117;BME280;25829;50.228;18.936;2022-09-09T01:28:05;98272.31;;;15.84;78.56
40117;BME280;25829;50.228;18.936;2022-09-09T01:31:12;98278.91;;;15.81;78.49
40117;BME280;25829;50.228;18.936;2022-09-09T01:34:19;98274.88;;;15.78;78.10
40117;BME280;25829;50.228;18.936;2022-09-09T01:37:21;98272.22;;;15.78;77.98
40117;BME280;25829;50.228;18.936;2022-09-09T01:40:22;98281.53;;;15.76;77.83
40117;BME280;25829;50.228;18.936;2022-09-09T01:43:25;98279.84;;;15.70;77.67
40117;BME280;25829;50.228;18.936;2022-09-09T01:46:27;98289.09;;;15.67;77.73
40117;BME280;25829;50.228;18.936;2022-09-09T01:49:29;98285.91;;;15.65;77.95
40117;BME280;25829;50.228;18.936;2022-09-09T01:52:38;98287.50;;;15.66;77.88
40117;BME280;25829;50.228;18.936;2022-09-09T01:55:57;98294.09;;;15.64;77.97
40117;BME280;25829;50.228;18.936;2022-09-09T01:59:23;98292.72;;;15.61;77.91
40117;BME280;25829;50.228;18.936;2022-09-09T02:02:38;98291.88;;;15.55;78.06
40117;BME280;25829;50.228;18.936;2022-09-09T02:06:09;98290.75;;;15.51;78.30
40117;BME280;25829;50.228;18.936;2022-09-09T02:09:17;98291.56;;;15.52;78.25
40117;BME280;25829;50.228;18.936;2022-09-09T02:12:21;98294.44;;;15.50;78.51
40117;BME280;25829;50.228;18.936;2022-09-09T02:15:35;98301.13;;;15.53;78.36
40117;BME280;25829;50.228;18.936;2022-09-09T02:21:46;98302.19;;;15.52;78.11
40117;BME280;25829;50.228;18.936;2022-09-09T02:24:50;98308.78;;;15.49;78.08
40117;BME280;25829;50.228;18.936;2022-09-09T02:27:59;98312.72;;;15.47;77.88
40117;BME280;25829;50.228;18.936;2022-09-09T02:31:00;98313.53;;;15.47;78.04
40117;BME280;25829;50.228;18.936;2022-09-09T02:34:10;98312.97;;;15.45;77.94
40117;BME280;25829;50.228;18.936;2022-09-09T02:37:15;98311.38;;;15.44;77.98
40117;BME280;25829;50.228;18.936;2022-09-09T02:40:21;98326.75;;;15.42;78.14
40117;BME280;25829;50.228;18.936;2022-09-09T02:43:33;98317.19;;;15.41;78.19
40117;BME280;25829;50.228;18.936;2022-09-09T02:50:10;98319.75;;;15.36;78.00
40117;BME280;25829;50.228;18.936;2022-09-09T02:53:17;98321.53;;;15.30;78.01
40117;BME280;25829;50.228;18.936;2022-09-09T02:56:24;98319.34;;;15.27;78.22
40117;BME280;25829;50.228;18.936;2022-09-09T02:59:30;98328.56;;;15.25;78.30
40117;BME280;25829;50.228;18.936;2022-09-09T03:02:31;98327.19;;;15.22;78.03
40117;BME280;25829;50.228;18.936;2022-09-09T03:05:37;98332.66;;;15.16;77.95
40117;BME280;25829;50.228;18.936;2022-09-09T03:08:39;98336.06;;;15.11;78.17
40117;BME280;25829;50.228;18.936;2022-09-09T03:11:40;98334.94;;;15.07;78.02
40117;BME280;25829;50.228;18.936;2022-09-09T03:14:42;98338.53;;;15.01;78.04
40117;BME280;25829;50.228;18.936;2022-09-09T03:17:44;98345.75;;;14.89;78.11
40117;BME280;25829;50.228;18.936;2022-09-09T03:20:46;98348.56;;;14.82;78.36
40117;BME280;25829;50.228;18.936;2022-09-09T03:23:50;98335.56;;;14.69;78.52
40117;BME280;25829;50.228;18.936;2022-09-09T03:26:53;98335.13;;;14.60;78.74
40117;BME280;25829;50.228;18.936;2022-09-09T03:29:56;98339.88;;;14.58;78.67
40117;BME280;25829;50.228;18.936;2022-09-09T03:32:59;98344.34;;;14.57;78.55
40117;BME280;25829;50.228;18.936;2022-09-09T03:36:05;98348.88;;;14.57;78.39
40117;BME280;25829;50.228;18.936;2022-09-09T03:39:09;98356.03;;;14.56;78.46
40117;BME280;25829;50.228;18.936;2022-09-09T03:42:14;98353.84;;;14.53;78.13
40117;BME280;25829;50.228;18.936;2022-09-09T03:45:20;98351.09;;;14.48;78.01
40117;BME280;25829;50.228;18.936;2022-09-09T03:48:21;98359.41;;;14.40;77.75
40117;BME280;25829;50.228;18.936;2022-09-09T03:51:22;98356.91;;;14.33;77.87
40117;BME280;25829;50.228;18.936;2022-09-09T03:54:25;98354.16;;;14.28;77.92
40117;BME280;25829;50.228;18.936;2022-09-09T03:57:25;98358.41;;;14.18;78.28
40117;BME280;25829;50.228;18.936;2022-09-09T04:00:27;98356.56;;;14.18;78.15
40117;BME280;25829;50.228;18.936;2022-09-09T04:03:29;98367.97;;;14.19;78.19
40117;BME280;25829;50.228;18.936;2022-09-09T04:06:30;98359.22;;;14.18;78.25
40117;BME280;25829;50.228;18.936;2022-09-09T04:09:30;98361.53;;;14.14;77.75
40117;BME280;25829;50.228;18.936;2022-09-09T04:12:37;98362.78;;;14.12;77.76
40117;BME280;25829;50.228;18.936;2022-09-09T04:15:38;98359.78;;;14.08;77.89
40117;BME280;25829;50.228;18.936;2022-09-09T04:18:39;98369.59;;;14.08;78.15
40117;BME280;25829;50.228;18.936;2022-09-09T04:21:41;98374.34;;;14.06;77.86
40117;BME280;25829;50.228;18.936;2022-09-09T04:24:42;98373.75;;;14.04;77.76
40117;BME280;25829;50.228;18.936;2022-09-09T04:27:42;98368.13;;;14.00;77.88
40117;BME280;25829;50.228;18.936;2022-09-09T04:30:44;98375.25;;;14.00;77.63
40117;BME280;25829;50.228;18.936;2022-09-09T04:33:46;98366.72;;;13.98;77.64
40117;BME280;25829;50.228;18.936;2022-09-09T04:36:47;98375.72;;;13.97;77.83
40117;BME280;25829;50.228;18.936;2022-09-09T04:39:48;98369.63;;;13.96;78.06
40117;BME280;25829;50.228;18.936;2022-09-09T04:42:50;98367.97;;;13.95;77.95
40117;BME280;25829;50.228;18.936;2022-09-09T04:45:52;98367.97;;;13.95;78.05
40117;BME280;25829;50.228;18.936;2022-09-09T04:48:56;98375.47;;;13.98;78.08
40117;BME280;25829;50.228;18.936;2022-09-09T04:52:02;98382.06;;;13.96;78.02
40117;BME280;25829;50.228;18.936;2022-09-09T04:55:05;98383.91;;;13.95;77.97
40117;BME280;25829;50.228;18.936;2022-09-09T04:58:07;98379.09;;;13.92;77.73
40117;BME280;25829;50.228;18.936;2022-09-09T05:01:09;98384.72;;;13.84;77.80
40117;BME280;25829;50.228;18.936;2022-09-09T05:04:12;98385.97;;;13.81;78.45
40117;BME280;25829;50.228;18.936;2022-09-09T05:07:13;98388.16;;;13.84;78.23
40117;BME280;25829;50.228;18.936;2022-09-09T05:10:15;98384.25;;;13.87;78.27
40117;BME280;25829;50.228;18.936;2022-09-09T05:13:19;98383.00;;;13.89;78.73
40117;BME280;25829;50.228;18.936;2022-09-09T05:16:21;98398.78;;;13.96;78.65
40117;BME280;25829;50.228;18.936;2022-09-09T05:19:23;98399.94;;;14.00;79.06
40117;BME280;25829;50.228;18.936;2022-09-09T05:22:26;98396.03;;;14.03;78.77
40117;BME280;25829;50.228;18.936;2022-09-09T05:25:28;98399.81;;;14.07;78.68
40117;BME280;25829;50.228;18.936;2022-09-09T05:28:30;98404.44;;;14.11;78.85
40117;BME280;25829;50.228;18.936;2022-09-09T05:31:35;98411.22;;;14.19;78.70
40117;BME280;25829;50.228;18.936;2022-09-09T05:34:44;98402.16;;;14.27;78.99
40117;BME280;25829;50.228;18.936;2022-09-09T05:37:52;98404.09;;;14.31;79.12
40117;BME280;25829;50.228;18.936;2022-09-09T05:40:53;98410.56;;;14.35;79.59
40117;BME280;25829;50.228;18.936;2022-09-09T05:43:57;98407.53;;;14.44;79.70
40117;BME280;25829;50.228;18.936;2022-09-09T05:46:59;98408.44;;;14.49;79.75
40117;BME280;25829;50.228;18.936;2022-09-09T05:50:01;98406.47;;;14.56;80.15
40117;BME280;25829;50.228;18.936;2022-09-09T05:53:02;98406.69;;;14.67;80.23
40117;BME280;25829;50.228;18.936;2022-09-09T05:56:11;98408.72;;;14.76;80.61
40117;BME280;25829;50.228;18.936;2022-09-09T05:59:19;98405.94;;;14.83;80.72
40117;BME280;25829;50.228;18.936;2022-09-09T06:02:20;98406.34;;;14.92;81.04
40117;BME280;25829;50.228;18.936;2022-09-09T06:05:30;98405.75;;;15.01;81.17
40117;BME280;25829;50.228;18.936;2022-09-09T06:08:36;98413.09;;;15.11;80.95
40117;BME280;25829;50.228;18.936;2022-09-09T06:11:40;98410.78;;;15.15;81.08
40117;BME280;25829;50.228;18.936;2022-09-09T06:14:44;98408.31;;;15.25;80.92
40117;BME280;25829;50.228;18.936;2022-09-09T06:17:46;98408.19;;;15.31;81.00
40117;BME280;25829;50.228;18.936;2022-09-09T06:20:58;98415.75;;;15.40;81.11
40117;BME280;25829;50.228;18.936;2022-09-09T06:24:00;98419.31;;;15.45;81.09
40117;BME280;25829;50.228;18.936;2022-09-09T06:27:02;98417.06;;;15.54;80.98
40117;BME280;25829;50.228;18.936;2022-09-09T06:30:07;98419.56;;;15.61;81.15
40117;BME280;25829;50.228;18.936;2022-09-09T06:33:08;98420.78;;;15.70;80.96
40117;BME280;25829;50.228;18.936;2022-09-09T06:36:15;98417.97;;;15.76;80.78
40117;BME280;25829;50.228;18.936;2022-09-09T06:39:16;98418.03;;;15.82;80.98
40117;BME280;25829;50.228;18.936;2022-09-09T06:42:18;98408.50;;;15.86;80.71
40117;BME280;25829;50.228;18.936;2022-09-09T06:45:37;98415.00;;;15.90;80.75
40117;BME280;25829;50.228;18.936;2022-09-09T06:48:39;98414.81;;;15.96;80.64
40117;BME280;25829;50.228;18.936;2022-09-09T06:51:45;98413.03;;;16.02;80.97
40117;BME280;25829;50.228;18.936;2022-09-09T06:54:47;98417.38;;;16.08;81.01
40117;BME280;25829;50.228;18.936;2022-09-09T06:57:50;98411.88;;;16.15;80.93
40117;BME280;25829;50.228;18.936;2022-09-09T07:01:06;98407.78;;;16.24;81.08
40117;BME280;25829;50.228;18.936;2022-09-09T07:04:08;98408.91;;;16.28;80.79
40117;BME280;25829;50.228;18.936;2022-09-09T07:07:11;98402.34;;;16.36;80.70
40117;BME280;25829;50.228;18.936;2022-09-09T07:10:23;98405.06;;;16.41;80.18
40117;BME280;25829;50.228;18.936;2022-09-09T07:13:25;98405.94;;;16.46;80.13
40117;BME280;25829;50.228;18.936;2022-09-09T07:16:28;98402.53;;;16.51;80.06
40117;BME280;25829;50.228;18.936;2022-09-09T07:19:43;98403.91;;;16.54;80.00
40117;BME280;25829;50.228;18.936;2022-09-09T07:22:44;98400.75;;;16.57;80.03
40117;BME280;25829;50.228;18.936;2022-09-09T07:25:49;98397.63;;;16.65;79.54
40117;BME280;25829;50.228;18.936;2022-09-09T07:28:51;98396.13;;;16.69;79.68
40117;BME280;25829;50.228;18.936;2022-09-09T07:31:53;98394.56;;;16.73;79.49
40117;BME280;25829;50.228;18.936;2022-09-09T07:34:59;98390.81;;;16.74;79.21
40117;BME280;25829;50.228;18.936;2022-09-09T07:38:01;98393.03;;;16.82;79.27
40117;BME280;25829;50.228;18.936;2022-09-09T07:41:08;98394.53;;;16.95;79.14
40117;BME280;25829;50.228;18.936;2022-09-09T07:44:16;98397.28;;;17.05;79.10
40117;BME280;25829;50.228;18.936;2022-09-09T07:47:20;98403.06;;;17.19;78.88
40117;BME280;25829;50.228;18.936;2022-09-09T07:50:25;98410.16;;;17.35;78.47
40117;BME280;25829;50.228;18.936;2022-09-09T07:53:26;98410.56;;;17.54;77.67
40117;BME280;25829;50.228;18.936;2022-09-09T07:56:28;98410.19;;;17.73;76.27
40117;BME280;25829;50.228;18.936;2022-09-09T07:59:29;98417.91;;;18.01;76.35
40117;BME280;25829;50.228;18.936;2022-09-09T08:02:31;98414.97;;;18.50;74.98
40117;BME280;25829;50.228;18.936;2022-09-09T08:05:32;98417.34;;;19.15;73.76
40117;BME280;25829;50.228;18.936;2022-09-09T08:08:39;98416.63;;;19.96;73.26
40117;BME280;25829;50.228;18.936;2022-09-09T08:11:45;98410.56;;;20.65;71.67
40117;BME280;25829;50.228;18.936;2022-09-09T08:14:47;98413.59;;;21.03;69.57
40117;BME280;25829;50.228;18.936;2022-09-09T08:18:22;98423.69;;;21.27;67.24
40117;BME280;25829;50.228;18.936;2022-09-09T08:21:57;98416.66;;;21.31;65.94
40117;BME280;25829;50.228;18.936;2022-09-09T08:24:58;98420.47;;;21.25;67.72
40117;BME280;25829;50.228;18.936;2022-09-09T08:27:58;98417.53;;;21.21;67.46
40117;BME280;25829;50.228;18.936;2022-09-09T08:31:14;98416.44;;;21.22;67.05
40117;BME280;25829;50.228;18.936;2022-09-09T08:34:16;98413.50;;;21.23;67.58
40117;BME280;25829;50.228;18.936;2022-09-09T08:37:22;98415.09;;;21.25;67.32
40117;BME280;25829;50.228;18.936;2022-09-09T08:40:29;98426.91;;;21.23;67.17
40117;BME280;25829;50.228;18.936;2022-09-09T08:43:33;98423.44;;;21.18;67.22
40117;BME280;25829;50.228;18.936;2022-09-09T08:56:32;98427.25;;;21.02;65.84
40117;BME280;25829;50.228;18.936;2022-09-09T08:59:35;98424.28;;;21.08;66.47
40117;BME280;25829;50.228;18.936;2022-09-09T09:03:04;98423.22;;;21.09;64.11
40117;BME280;25829;50.228;18.936;2022-09-09T09:13:24;98427.41;;;20.81;65.00
40117;BME280;25829;50.228;18.936;2022-09-09T09:16:40;98424.13;;;20.84;65.00
40117;BME280;25829;50.228;18.936;2022-09-09T09:19:47;98424.91;;;20.90;64.73
40117;BME280;25829;50.228;18.936;2022-09-09T09:22:52;98421.16;;;20.96;64.57
40117;BME280;25829;50.228;18.936;2022-09-09T09:25:59;98419.22;;;21.07;63.97
40117;BME280;25829;50.228;18.936;2022-09-09T09:29:11;98420.78;;;21.13;61.06
40117;BME280;25829;50.228;18.936;2022-09-09T09:32:21;98410.34;;;21.06;63.01
40117;BME280;25829;50.228;18.936;2022-09-09T09:35:23;98416.22;;;21.08;63.32
40117;BME280;25829;50.228;18.936;2022-09-09T09:38:28;98409.81;;;21.09;63.12
40117;BME280;25829;50.228;18.936;2022-09-09T09:41:54;98411.09;;;21.22;62.28
40117;BME280;25829;50.228;18.936;2022-09-09T09:44:55;98412.41;;;21.30;63.06
40117;BME280;25829;50.228;18.936;2022-09-09T09:48:02;98410.44;;;21.40;62.86
40117;BME280;25829;50.228;18.936;2022-09-09T09:51:16;98412.97;;;21.61;62.81
40117;BME280;25829;50.228;18.936;2022-09-09T09:54:29;98419.78;;;21.77;62.13
40117;BME280;25829;50.228;18.936;2022-09-09T09:57:37;98420.25;;;21.84;61.46
40117;BME280;25829;50.228;18.936;2022-09-09T10:00:51;98413.84;;;21.85;60.96
40117;BME280;25829;50.228;18.936;2022-09-09T10:07:21;98414.84;;;21.94;61.32
40117;BME280;25829;50.228;18.936;2022-09-09T10:10:28;98412.69;;;21.97;60.80
40117;BME280;25829;50.228;18.936;2022-09-09T10:17:54;98431.81;;;21.85;59.73
40117;BME280;25829;50.228;18.936;2022-09-09T10:27:28;98436.19;;;21.76;60.50
40117;BME280;25829;50.228;18.936;2022-09-09T10:30:56;98437.84;;;21.72;59.75
40117;BME280;25829;50.228;18.936;2022-09-09T10:48:04;98440.84;;;21.65;59.71
40117;BME280;25829;50.228;18.936;2022-09-09T10:51:28;98447.25;;;21.69;59.71
40117;BME280;25829;50.228;18.936;2022-09-09T10:57:54;98443.28;;;21.61;58.91
40117;BME280;25829;50.228;18.936;2022-09-09T11:01:06;98440.94;;;21.50;57.67
40117;BME280;25829;50.228;18.936;2022-09-09T11:04:19;98438.88;;;21.41;57.91
40117;BME280;25829;50.228;18.936;2022-09-09T11:07:33;98436.50;;;21.35;58.31
40117;BME280;25829;50.228;18.936;2022-09-09T11:14:04;98439.78;;;21.27;57.39
40117;BME280;25829;50.228;18.936;2022-09-09T11:17:16;98438.44;;;21.24;56.87
40117;BME280;25829;50.228;18.936;2022-09-09T11:20:18;98441.38;;;21.22;57.72
40117;BME280;25829;50.228;18.936;2022-09-09T11:23:26;98446.75;;;21.28;56.73
40117;BME280;25829;50.228;18.936;2022-09-09T11:26:38;98446.50;;;21.24;56.63
40117;BME280;25829;50.228;18.936;2022-09-09T11:30:04;98445.41;;;21.25;54.29
40117;BME280;25829;50.228;18.936;2022-09-09T11:36:50;98441.56;;;21.36;56.25
40117;BME280;25829;50.228;18.936;2022-09-09T11:43:23;98444.47;;;21.45;55.61
40117;BME280;25829;50.228;18.936;2022-09-09T11:46:34;98445.28;;;21.45;55.75
40117;BME280;25829;50.228;18.936;2022-09-09T11:49:41;98439.66;;;21.47;56.53
40117;BME280;25829;50.228;18.936;2022-09-09T11:52:44;98438.03;;;21.46;56.04
40117;BME280;25829;50.228;18.936;2022-09-09T11:56:10;98430.81;;;21.41;54.90
40117;BME280;25829;50.228;18.936;2022-09-09T11:59:37;98440.78;;;21.36;54.23
40117;BME280;25829;50.228;18.936;2022-09-09T12:02:48;98440.56;;;21.27;54.27
40117;BME280;25829;50.228;18.936;2022-09-09T12:05:51;98441.09;;;21.29;55.29
40117;BME280;25829;50.228;18.936;2022-09-09T12:12:36;98434.44;;;21.21;54.30
40117;BME280;25829;50.228;18.936;2022-09-09T12:15:48;98441.38;;;21.22;53.97
40117;BME280;25829;50.228;18.936;2022-09-09T12:18:50;98437.13;;;21.21;53.92
40117;BME280;25829;50.228;18.936;2022-09-09T12:32:22;98446.16;;;21.36;54.23
40117;BME280;25829;50.228;18.936;2022-09-09T12:35:54;98450.44;;;21.37;54.10
40117;BME280;25829;50.228;18.936;2022-09-09T12:38:59;98450.97;;;21.39;54.12
40117;BME280;25829;50.228;18.936;2022-09-09T12:42:19;98457.41;;;21.38;53.32
40117;BME280;25829;50.228;18.936;2022-09-09T12:45:29;98449.63;;;21.36;53.59
40117;BME280;25829;50.228;18.936;2022-09-09T12:48:34;98442.41;;;21.37;53.92
40117;BME280;25829;50.228;18.936;2022-09-09T12:51:36;98432.72;;;21.36;54.20
40117;BME280;25829;50.228;18.936;2022-09-09T12:54:44;98429.78;;;21.37;53.85
40117;BME280;25829;50.228;18.936;2022-09-09T12:57:48;98434.91;;;21.34;53.25
40117;BME280;25829;50.228;18.936;2022-09-09T13:01:03;98438.94;;;21.31;52.71
40117;BME280;25829;50.228;18.936;2022-09-09T13:04:19;98433.56;;;21.31;52.17
40117;BME280;25829;50.228;18.936;2022-09-09T13:07:21;98432.47;;;21.32;52.64
40117;BME280;25829;50.228;18.936;2022-09-09T13:10:35;98430.59;;;21.33;52.60
40117;BME280;25829;50.228;18.936;2022-09-09T13:13:58;98438.13;;;21.31;52.76
40117;BME280;25829;50.228;18.936;2022-09-09T13:17:01;98427.66;;;21.34;53.08
40117;BME280;25829;50.228;18.936;2022-09-09T13:24:06;98419.84;;;21.38;52.89
40117;BME280;25829;50.228;18.936;2022-09-09T13:27:51;98411.78;;;21.38;52.17
40117;BME280;25829;50.228;18.936;2022-09-09T13:31:23;98414.47;;;21.38;52.74
40117;BME280;25829;50.228;18.936;2022-09-09T13:34:26;98407.50;;;21.37;53.32
40117;BME280;25829;50.228;18.936;2022-09-09T13:37:37;98401.56;;;21.40;52.98
40117;BME280;25829;50.228;18.936;2022-09-09T13:41:05;98402.91;;;21.42;52.24
40117;BME280;25829;50.228;18.936;2022-09-09T13:44:06;98406.38;;;21.43;53.18
40117;BME280;25829;50.228;18.936;2022-09-09T13:47:21;98393.19;;;21.46;52.93
40117;BME280;25829;50.228;18.936;2022-09-09T13:50:33;98392.13;;;21.48;53.52
40117;BME280;25829;50.228;18.936;2022-09-09T13:53:34;98388.34;;;21.49;53.12
40117;BME280;25829;50.228;18.936;2022-09-09T13:56:37;98383.53;;;21.51;53.06
40117;BME280;25829;50.228;18.936;2022-09-09T13:59:48;98377.06;;;21.52;53.11
40117;BME280;25829;50.228;18.936;2022-09-09T14:02:50;98383.75;;;21.54;52.63
40117;BME280;25829;50.228;18.936;2022-09-09T14:05:55;98373.81;;;21.55;52.50
40117;BME280;25829;50.228;18.936;2022-09-09T14:08:56;98381.06;;;21.54;52.59
40117;BME280;25829;50.228;18.936;2022-09-09T14:11:56;98365.25;;;21.53;52.40
40117;BME280;25829;50.228;18.936;2022-09-09T14:14:57;98366.31;;;21.52;52.42
40117;BME280;25829;50.228;18.936;2022-09-09T14:18:00;98370.38;;;21.49;52.63
40117;BME280;25829;50.228;18.936;2022-09-09T14:21:00;98373.91;;;21.44;51.88
40117;BME280;25829;50.228;18.936;2022-09-09T14:24:02;98376.34;;;21.41;51.90
40117;BME280;25829;50.228;18.936;2022-09-09T14:27:03;98374.72;;;21.40;51.61
40117;BME280;25829;50.228;18.936;2022-09-09T14:30:05;98371.25;;;21.39;52.05
40117;BME280;25829;50.228;18.936;2022-09-09T14:33:06;98369.34;;;21.40;52.16
40117;BME280;25829;50.228;18.936;2022-09-09T14:36:08;98370.44;;;21.39;51.99
40117;BME280;25829;50.228;18.936;2022-09-09T14:39:09;98366.44;;;21.36;51.84
40117;BME280;25829;50.228;18.936;2022-09-09T14:42:16;98371.00;;;21.36;51.64
40117;BME280;25829;50.228;18.936;2022-09-09T14:45:17;98364.34;;;21.33;52.25
40117;BME280;25829;50.228;18.936;2022-09-09T14:48:17;98369.47;;;21.30;52.38
40117;BME280;25829;50.228;18.936;2022-09-09T14:51:21;98367.03;;;21.28;52.89
40117;BME280;25829;50.228;18.936;2022-09-09T14:54:22;98368.63;;;21.29;53.07
40117;BME280;25829;50.228;18.936;2022-09-09T14:57:23;98364.66;;;21.27;53.57
40117;BME280;25829;50.228;18.936;2022-09-09T15:00:24;98362.78;;;21.27;53.67
40117;BME280;25829;50.228;18.936;2022-09-09T15:03:25;98363.81;;;21.26;53.03
40117;BME280;25829;50.228;18.936;2022-09-09T15:06:28;98363.09;;;21.20;52.43
40117;BME280;25829;50.228;18.936;2022-09-09T15:09:29;98364.69;;;21.16;52.64
40117;BME280;25829;50.228;18.936;2022-09-09T15:12:30;98364.97;;;21.15;52.85
40117;BME280;25829;50.228;18.936;2022-09-09T15:15:32;98367.94;;;21.13;52.87
40117;BME280;25829;50.228;18.936;2022-09-09T15:18:35;98361.22;;;21.11;52.50
40117;BME280;25829;50.228;18.936;2022-09-09T15:21:43;98372.53;;;21.08;52.65
40117;BME280;25829;50.228;18.936;2022-09-09T15:24:43;98374.44;;;21.02;52.77
40117;BME280;25829;50.228;18.936;2022-09-09T15:27:44;98381.72;;;20.96;52.84
40117;BME280;25829;50.228;18.936;2022-09-09T15:30:52;98372.09;;;20.90;52.95
40117;BME280;25829;50.228;18.936;2022-09-09T15:33:55;98364.63;;;20.82;53.57
40117;BME280;25829;50.228;18.936;2022-09-09T15:37:02;98355.31;;;20.74;54.11
40117;BME280;25829;50.228;18.936;2022-09-09T15:40:03;98373.28;;;20.69;55.13
40117;BME280;25829;50.228;18.936;2022-09-09T15:43:05;98373.59;;;20.62;55.78
40117;BME280;25829;50.228;18.936;2022-09-09T15:46:25;98367.44;;;20.57;56.62
40117;BME280;25829;50.228;18.936;2022-09-09T15:49:27;98376.59;;;20.45;57.31
40117;BME280;25829;50.228;18.936;2022-09-09T15:52:31;98390.25;;;20.39;57.81
40117;BME280;25829;50.228;18.936;2022-09-09T15:55:32;98377.97;;;20.33;58.45
40117;BME280;25829;50.228;18.936;2022-09-09T15:58:33;98378.25;;;20.21;59.11
40117;BME280;25829;50.228;18.936;2022-09-09T16:01:35;98372.13;;;20.10;59.40
40117;BME280;25829;50.228;18.936;2022-09-09T16:04:36;98372.41;;;20.03;59.86
40117;BME280;25829;50.228;18.936;2022-09-09T16:07:37;98363.84;;;19.96;60.81
40117;BME280;25829;50.228;18.936;2022-09-09T16:10:38;98355.59;;;19.88;61.10
40117;BME280;25829;50.228;18.936;2022-09-09T16:17:03;98350.00;;;19.74;62.38
40117;BME280;25829;50.228;18.936;2022-09-09T16:20:05;98360.97;;;19.67;62.56
40117;BME280;25829;50.228;18.936;2022-09-09T16:23:16;98352.09;;;19.62;63.12
40117;BME280;25829;50.228;18.936;2022-09-09T16:26:17;98348.34;;;19.52;63.53
40117;BME280;25829;50.228;18.936;2022-09-09T16:29:19;98357.75;;;19.40;64.27
40117;BME280;25829;50.228;18.936;2022-09-09T16:32:22;98354.50;;;19.27;64.58
40117;BME280;25829;50.228;18.936;2022-09-09T16:35:22;98344.88;;;19.21;64.92
40117;BME280;25829;50.228;18.936;2022-09-09T16:38:23;98347.00;;;19.14;64.93
40117;BME280;25829;50.228;18.936;2022-09-09T16:41:25;98352.88;;;19.11;65.42
40117;BME280;25829;50.228;18.936;2022-09-09T16:44:28;98349.69;;;19.04;65.55
40117;BME280;25829;50.228;18.936;2022-09-09T16:47:28;98346.22;;;18.98;65.79
40117;BME280;25829;50.228;18.936;2022-09-09T16:50:30;98350.72;;;18.93;65.94
40117;BME280;25829;50.228;18.936;2022-09-09T16:53:32;98345.13;;;18.84;65.92
40117;BME280;25829;50.228;18.936;2022-09-09T16:56:35;98345.34;;;18.77;66.27
40117;BME280;25829;50.228;18.936;2022-09-09T16:59:39;98350.66;;;18.67;66.51
40117;BME280;25829;50.228;18.936;2022-09-09T17:02:40;98351.13;;;18.59;66.85
40117;BME280;25829;50.228;18.936;2022-09-09T17:05:41;98355.66;;;18.48;67.21
40117;BME280;25829;50.228;18.936;2022-09-09T17:08:43;98356.41;;;18.38;67.48
40117;BME280;25829;50.228;18.936;2022-09-09T17:11:44;98354.81;;;18.32;67.72
40117;BME280;25829;50.228;18.936;2022-09-09T17:14:45;98350.22;;;18.23;68.09
40117;BME280;25829;50.228;18.936;2022-09-09T17:17:46;98354.72;;;18.17;68.45
40117;BME280;25829;50.228;18.936;2022-09-09T17:20:49;98366.19;;;18.12;68.64
40117;BME280;25829;50.228;18.936;2022-09-09T17:23:50;98364.81;;;18.05;68.79
40117;BME280;25829;50.228;18.936;2022-09-09T17:26:52;98370.34;;;17.98;68.82
40117;BME280;25829;50.228;18.936;2022-09-09T17:29:53;98378.56;;;17.91;68.87
40117;BME280;25829;50.228;18.936;2022-09-09T17:32:56;98379.56;;;17.80;68.77
40117;BME280;25829;50.228;18.936;2022-09-09T17:35:58;98371.50;;;17.70;68.87
40117;BME280;25829;50.228;18.936;2022-09-09T17:39:00;98373.22;;;17.54;69.13
40117;BME280;25829;50.228;18.936;2022-09-09T17:42:01;98376.09;;;17.48;69.38
40117;BME280;25829;50.228;18.936;2022-09-09T17:45:02;98376.09;;;17.42;69.90
40117;BME280;25829;50.228;18.936;2022-09-09T17:48:03;98381.34;;;17.37;69.86
40117;BME280;25829;50.228;18.936;2022-09-09T17:51:07;98384.78;;;17.33;70.15
40117;BME280;25829;50.228;18.936;2022-09-09T17:54:12;98383.69;;;17.29;69.98
40117;BME280;25829;50.228;18.936;2022-09-09T17:57:13;98381.75;;;17.24;70.19
40117;BME280;25829;50.228;18.936;2022-09-09T18:00:14;98388.94;;;17.18;70.41
40117;BME280;25829;50.228;18.936;2022-09-09T18:03:17;98389.44;;;17.15;70.69
40117;BME280;25829;50.228;18.936;2022-09-09T18:06:20;98388.06;;;17.13;70.68